Webster, Florida
Current Conditions -  °F | °C
As of 3:35 AM on Monday 24 Nov 2014 (Local Time) from KLEE Reporting Station
Overcast Overcast  
Wind Chill: 69°   Ceiling: 1300
Heat Index: 69°   Visibility: 9mi
Dew Point: 68°   Wind: 6mph
Humidity: 96%   Direction: 190°S
Pressure: 29.92"   Gusts: NA
Location:  28.61°N, 82.06°W
Report Text: KLEE 240835Z AUTO 19005KT 9SM BKN013 OVC020 21/20 A2992 RMK AO2 T02060200 $
Loading
Personal Weather Stations






























Interactive Weather Map New forecast layout! Learn more

10-Day Weather Forecast

Advertisements
Track Severe Weather on mobile